createdAt,value
2017-10-29T00:02:53.119Z,99228.12
2017-10-29T00:05:54.651Z,99248.94
2017-10-29T00:08:56.159Z,99245.05
2017-10-29T00:11:58.386Z,99242.48
2017-10-29T00:14:59.814Z,99251.40
2017-10-29T00:18:01.323Z,99231.09
2017-10-29T00:21:02.825Z,99230.56
2017-10-29T00:24:04.299Z,99216.84
2017-10-29T00:27:05.776Z,99193.61
2017-10-29T00:30:07.216Z,99199.41
2017-10-29T00:33:08.728Z,99191.25
2017-10-29T00:36:10.197Z,99187.13
2017-10-29T00:39:11.707Z,99171.05
2017-10-29T00:42:13.951Z,99183.65
2017-10-29T00:45:15.457Z,99174.28
2017-10-29T00:48:16.927Z,99179.75
2017-10-29T00:51:18.349Z,99177.31
2017-10-29T00:54:19.890Z,99163.53
2017-10-29T00:57:22.104Z,99172.99
2017-10-29T01:00:23.580Z,99152.95
2017-10-29T01:03:25.034Z,99167.52
2017-10-29T01:06:26.626Z,99158.52
2017-10-29T01:09:28.821Z,99134.17
2017-10-29T01:12:30.359Z,99123.23
2017-10-29T01:15:31.879Z,99117.87
2017-10-29T01:18:33.378Z,99104.35
2017-10-29T01:21:34.896Z,99112.41
2017-10-29T01:24:36.396Z,99099.72
2017-10-29T01:27:37.929Z,99093.42
2017-10-29T01:30:40.176Z,99114.53
2017-10-29T01:33:41.708Z,99085.72
2017-10-29T01:36:43.247Z,99092.29
2017-10-29T01:39:44.799Z,99095.60
2017-10-29T01:42:46.375Z,99065.84
2017-10-29T01:45:47.954Z,99049.08
2017-10-29T01:48:49.463Z,99066.55
2017-10-29T01:51:50.939Z,99050.98
2017-10-29T01:54:52.603Z,99050.95
2017-10-29T01:57:54.066Z,99056.40
2017-10-29T02:00:56.320Z,99070.93
2017-10-29T02:03:57.816Z,99044.08
2017-10-29T02:06:59.326Z,99058.92
2017-10-29T02:10:00.772Z,99042.62
2017-10-29T02:13:02.203Z,99036.45
2017-10-29T02:16:03.722Z,99036.02
2017-10-29T02:19:05.259Z,99029.43
2017-10-29T02:22:07.504Z,99051.65
2017-10-29T02:25:08.968Z,99032.58
2017-10-29T02:28:10.482Z,99038.08
2017-10-29T02:31:11.974Z,99021.58
2017-10-29T02:34:13.455Z,99024.91
2017-10-29T02:37:15.703Z,99036.64
2017-10-29T02:40:17.191Z,99042.19
2017-10-29T02:43:18.698Z,99028.60
2017-10-29T02:46:20.261Z,99019.91
2017-10-29T02:49:21.835Z,99028.67
2017-10-29T02:55:32.300Z,98997.96
2017-10-29T02:58:33.871Z,98990.13
2017-10-29T03:01:36.088Z,98998.41
2017-10-29T03:04:37.633Z,99012.05
2017-10-29T03:07:39.145Z,98988.65
2017-10-29T03:10:40.734Z,99009.98
2017-10-29T03:13:42.196Z,99003.96
2017-10-29T03:16:43.725Z,99020.38
2017-10-29T03:22:54.254Z,99025.95
2017-10-29T03:25:55.768Z,99021.95
2017-10-29T03:28:57.260Z,99016.67
2017-10-29T03:31:58.854Z,99033.01
2017-10-29T03:35:01.103Z,99019.98
2017-10-29T03:38:02.576Z,99067.45
2017-10-29T03:41:04.040Z,99099.11
2017-10-29T03:44:05.583Z,99098.88
2017-10-29T03:47:07.820Z,99077.05
2017-10-29T03:50:10.070Z,99104.02
2017-10-29T03:53:11.595Z,99103.72
2017-10-29T03:56:13.876Z,99107.89
2017-10-29T03:59:16.175Z,99106.23
2017-10-29T04:02:17.708Z,99095.41
2017-10-29T04:05:19.252Z,99098.19
2017-10-29T04:08:20.719Z,99135.79
2017-10-29T04:11:22.180Z,99140.67
2017-10-29T04:14:23.659Z,99154.33
2017-10-29T04:17:25.094Z,99143.44
2017-10-29T04:20:26.583Z,99165.32
2017-10-29T04:23:28.049Z,99195.16
2017-10-29T04:26:29.606Z,99184.31
2017-10-29T04:29:31.142Z,99213.36
2017-10-29T04:32:32.700Z,99193.33
2017-10-29T04:35:34.253Z,99184.44
2017-10-29T04:38:35.748Z,99193.40
2017-10-29T04:41:37.355Z,99201.89
2017-10-29T04:44:38.887Z,99191.05
2017-10-29T04:47:40.444Z,99213.47
2017-10-29T04:50:41.974Z,99200.34
2017-10-29T04:53:43.592Z,99189.85
2017-10-29T04:56:45.117Z,99191.10
2017-10-29T04:59:46.663Z,99187.91
2017-10-29T05:02:48.599Z,99197.22
2017-10-29T05:05:50.113Z,99197.33
2017-10-29T05:08:51.634Z,99201.58
2017-10-29T05:11:53.131Z,99202.98
2017-10-29T05:14:55.416Z,99203.19
2017-10-29T05:17:57.627Z,99198.56
2017-10-29T05:20:59.168Z,99229.02
2017-10-29T05:27:08.951Z,99242.55
2017-10-29T05:30:10.578Z,99244.88
2017-10-29T05:33:12.783Z,99254.16
2017-10-29T05:36:14.359Z,99282.21
2017-10-29T05:39:15.867Z,99281.94
2017-10-29T05:42:17.456Z,99308.89
2017-10-29T05:45:19.027Z,99295.48
2017-10-29T05:48:20.569Z,99296.94
2017-10-29T05:51:22.072Z,99311.56
2017-10-29T05:54:23.568Z,99309.98
2017-10-29T05:57:25.146Z,99303.09
2017-10-29T06:00:26.749Z,99319.12
2017-10-29T06:03:28.273Z,99331.31
2017-10-29T06:06:29.859Z,99331.30
2017-10-29T06:09:31.342Z,99366.84
2017-10-29T06:12:32.868Z,99364.41
2017-10-29T06:15:34.384Z,99384.64
2017-10-29T06:18:35.959Z,99387.62
2017-10-29T06:21:38.246Z,99394.03
2017-10-29T06:24:39.798Z,99418.04
2017-10-29T06:27:41.327Z,99421.84
2017-10-29T06:30:43.638Z,99432.67
2017-10-29T06:33:45.192Z,99433.29
2017-10-29T06:36:46.682Z,99431.86
2017-10-29T06:39:48.240Z,99450.35
2017-10-29T06:42:49.746Z,99451.80
2017-10-29T06:45:51.276Z,99469.98
2017-10-29T06:48:52.812Z,99465.94
2017-10-29T06:51:54.329Z,99476.86
2017-10-29T06:54:55.835Z,99475.69
2017-10-29T06:57:57.361Z,99504.08
2017-10-29T07:00:58.859Z,99513.88
2017-10-29T07:04:01.097Z,99497.13
2017-10-29T07:07:02.686Z,99510.53
2017-10-29T07:10:04.937Z,99522.80
2017-10-29T07:13:06.486Z,99524.43
2017-10-29T07:16:08.004Z,99516.47
2017-10-29T07:19:10.027Z,99549.13
2017-10-29T07:22:12.264Z,99562.46
2017-10-29T07:25:13.833Z,99571.09
2017-10-29T07:28:15.427Z,99562.42
2017-10-29T07:31:16.990Z,99597.33
2017-10-29T07:34:18.537Z,99590.28
2017-10-29T07:37:20.080Z,99594.86
2017-10-29T07:40:22.435Z,99596.41
2017-10-29T07:43:23.892Z,99596.87
2017-10-29T07:46:25.464Z,99598.13
2017-10-29T07:49:27.730Z,99605.25
2017-10-29T07:52:29.285Z,99623.67
2017-10-29T07:55:30.791Z,99634.52
2017-10-29T07:58:32.245Z,99671.19
2017-10-29T08:01:33.759Z,99648.23
2017-10-29T08:04:35.216Z,99645.92
2017-10-29T08:07:37.216Z,99644.91
2017-10-29T08:10:38.777Z,99656.06
2017-10-29T08:13:40.308Z,99660.45
2017-10-29T08:16:41.809Z,99667.39
2017-10-29T08:19:43.291Z,99679.61
2017-10-29T08:22:45.572Z,99673.68
2017-10-29T08:25:47.034Z,99677.67
2017-10-29T08:28:48.609Z,99685.98
2017-10-29T08:31:50.199Z,99692.53
2017-10-29T08:34:52.496Z,99692.95
2017-10-29T08:37:54.095Z,99698.02
2017-10-29T08:40:55.730Z,99713.06
2017-10-29T08:43:57.296Z,99706.88
2017-10-29T08:46:58.863Z,99723.19
2017-10-29T08:50:00.348Z,99718.91
2017-10-29T08:53:02.649Z,99739.14
2017-10-29T08:56:04.123Z,99744.20
2017-10-29T08:59:05.652Z,99750.27
2017-10-29T09:02:07.247Z,99768.58
2017-10-29T09:05:08.839Z,99767.48
2017-10-29T09:08:11.094Z,99762.22
2017-10-29T09:11:13.467Z,99760.46
2017-10-29T09:14:15.042Z,99765.11
2017-10-29T09:17:17.313Z,99757.72
2017-10-29T09:20:19.641Z,99766.13
2017-10-29T09:23:21.922Z,99775.82
2017-10-29T09:26:23.505Z,99771.78
2017-10-29T09:29:25.064Z,99793.42
2017-10-29T09:32:26.764Z,99816.71
2017-10-29T09:35:29.119Z,99775.73
2017-10-29T09:38:31.511Z,99801.15
2017-10-29T09:41:34.450Z,99806.42
2017-10-29T09:44:36.174Z,99810.17
2017-10-29T09:47:40.942Z,99813.91
2017-10-29T09:50:43.205Z,99821.90
2017-10-29T09:53:45.680Z,99803.35
2017-10-29T09:56:54.697Z,99852.05
2017-10-29T09:59:57.181Z,99841.55
2017-10-29T10:03:08.558Z,99804.50
2017-10-29T10:06:11.188Z,99835.75
2017-10-29T10:09:13.231Z,99844.49
2017-10-29T10:12:17.271Z,99864.39
2017-10-29T10:15:19.669Z,99852.73
2017-10-29T10:18:21.349Z,99865.77
2017-10-29T10:21:23.824Z,99887.12
2017-10-29T10:24:27.952Z,99903.16
2017-10-29T10:27:29.483Z,99911.91
2017-10-29T10:30:31.114Z,99912.47
2017-10-29T10:33:32.817Z,99889.32
2017-10-29T10:36:34.383Z,99916.80
2017-10-29T10:47:23.783Z,99922.97
2017-10-29T10:50:25.426Z,99925.02
2017-10-29T10:53:27.012Z,99919.89
2017-10-29T10:56:29.571Z,99929.58
2017-10-29T10:59:31.079Z,99918.03
2017-10-29T11:02:33.381Z,99915.92
2017-10-29T11:05:34.946Z,99928.07
2017-10-29T11:08:36.495Z,99913.38
2017-10-29T11:11:37.980Z,99934.02
2017-10-29T11:14:39.559Z,99932.81
2017-10-29T11:17:42.607Z,99911.42
2017-10-29T11:20:45.063Z,99912.73
2017-10-29T11:23:46.806Z,99919.16
2017-10-29T11:26:51.514Z,99915.22
2017-10-29T11:29:54.895Z,99915.34
2017-10-29T11:32:59.682Z,99929.91
2017-10-29T11:36:01.304Z,99920.08
2017-10-29T11:39:04.276Z,99933.92
2017-10-29T11:42:13.499Z,99930.72
2017-10-29T11:45:20.692Z,99912.03
2017-10-29T11:48:23.661Z,99934.70
2017-10-29T11:51:25.779Z,99942.58
2017-10-29T11:54:40.166Z,99938.17
2017-10-29T11:57:50.322Z,99925.05
2017-10-29T12:00:52.427Z,99956.05
2017-10-29T12:03:53.986Z,99967.62
2017-10-29T12:07:16.300Z,99972.93
2017-10-29T12:10:18.862Z,99869.92
2017-10-29T12:13:32.278Z,99977.22
2017-10-29T12:16:36.110Z,99979.06
2017-10-29T12:19:42.990Z,99997.00
2017-10-29T12:23:07.080Z,99995.95
2017-10-29T12:26:09.217Z,99991.86
2017-10-29T12:29:13.047Z,99994.77
2017-10-29T12:32:44.649Z,99971.63
2017-10-29T12:42:43.949Z,100002.68
2017-10-29T12:57:06.027Z,100022.59
2017-10-29T13:00:10.622Z,100017.13
2017-10-29T13:07:24.270Z,100026.95
2017-10-29T13:14:16.111Z,100023.83
2017-10-29T13:20:41.769Z,100036.39
2017-10-29T13:27:15.649Z,100039.63
2017-10-29T13:30:48.053Z,100044.48
2017-10-29T13:37:48.356Z,100041.87
2017-10-29T13:41:03.790Z,100045.63
2017-10-29T13:44:24.613Z,100050.05
2017-10-29T14:01:27.983Z,100077.13
2017-10-29T14:04:32.541Z,100086.55
2017-10-29T14:07:38.656Z,100094.06
2017-10-29T14:10:43.465Z,100081.09
2017-10-29T14:13:53.929Z,100110.23
2017-10-29T14:16:57.608Z,100101.44
2017-10-29T14:19:59.471Z,100114.05
2017-10-29T14:23:03.966Z,100107.77
2017-10-29T14:26:08.034Z,100075.52
2017-10-29T14:29:09.764Z,100095.09
2017-10-29T14:32:15.681Z,100102.06
2017-10-29T14:35:20.626Z,100118.08
2017-10-29T14:38:22.281Z,100107.15
2017-10-29T14:41:24.483Z,100110.52
2017-10-29T14:44:26.827Z,100102.64
2017-10-29T14:47:28.331Z,100108.41
2017-10-29T14:50:35.169Z,100108.30
2017-10-29T15:01:09.245Z,100102.64
2017-10-29T15:16:21.229Z,100122.23
2017-10-29T15:19:45.117Z,100127.75
2017-10-29T15:48:00.608Z,100194.96
2017-10-29T15:51:05.275Z,100198.89
2017-10-29T15:54:07.597Z,100193.05
2017-10-29T15:57:09.462Z,100198.83
2017-10-29T16:00:12.660Z,100211.05
2017-10-29T16:03:14.555Z,100214.05
2017-10-29T16:06:18.902Z,100218.59
2017-10-29T16:09:21.358Z,100230.87
2017-10-29T16:12:23.770Z,100234.53
2017-10-29T16:15:28.731Z,100238.11
2017-10-29T16:18:30.373Z,100239.45
2017-10-29T16:21:31.916Z,100244.59
2017-10-29T16:24:33.531Z,100256.75
2017-10-29T16:27:35.992Z,100265.47
2017-10-29T16:30:38.283Z,100255.42
2017-10-29T16:33:39.955Z,100256.25
2017-10-29T16:36:48.989Z,100262.57
2017-10-29T16:39:59.446Z,100275.73
2017-10-29T16:43:04.876Z,100273.75
2017-10-29T16:46:07.179Z,100281.61
2017-10-29T16:49:08.695Z,100281.05
2017-10-29T16:52:20.423Z,100286.27
2017-10-29T16:55:22.133Z,100296.52
2017-10-29T16:58:24.285Z,100297.67
2017-10-29T17:01:25.913Z,100304.89
2017-10-29T17:04:28.767Z,100304.47
2017-10-29T17:07:35.342Z,100311.56
2017-10-29T17:10:37.719Z,100314.58
2017-10-29T17:13:42.910Z,100325.22
2017-10-29T17:16:51.333Z,100314.78
2017-10-29T17:19:52.956Z,100327.42
2017-10-29T17:59:03.564Z,100384.20
2017-10-29T18:09:13.974Z,100413.00
2017-10-29T18:12:18.235Z,100407.83
2017-10-29T18:58:17.880Z,100449.42
2017-10-29T19:01:20.915Z,100474.57
2017-10-29T19:04:23.335Z,100447.11
2017-10-29T19:07:26.457Z,100447.20
2017-10-29T19:10:28.213Z,100452.20
2017-10-29T19:13:29.900Z,100452.93
2017-10-29T19:16:33.634Z,100413.42
2017-10-29T19:19:35.916Z,100447.72
2017-10-29T19:22:37.985Z,100451.20
2017-10-29T19:25:39.616Z,100453.05
2017-10-29T19:28:42.332Z,100449.80
2017-10-29T19:31:44.826Z,100457.70
2017-10-29T19:34:47.015Z,100470.38
2017-10-29T19:37:48.833Z,100466.08
2017-10-29T19:40:52.555Z,100480.94
2017-10-29T19:43:56.569Z,100476.60
2017-10-29T19:46:59.641Z,100480.11
2017-10-29T19:50:01.330Z,100482.22
2017-10-29T19:53:02.896Z,100479.16
2017-10-29T19:56:04.475Z,100481.16
2017-10-29T19:59:07.004Z,100495.72
2017-10-29T20:02:09.068Z,100490.92
2017-10-29T20:05:10.601Z,100493.84
2017-10-29T20:08:16.010Z,100499.89
2017-10-29T20:14:27.238Z,100502.20
2017-10-29T20:17:28.882Z,100505.63
2017-10-29T20:20:32.330Z,100486.65
2017-10-29T20:23:34.495Z,100519.95
2017-10-29T20:26:36.107Z,100523.61
2017-10-29T20:29:37.724Z,100525.85
2017-10-29T20:32:39.394Z,100529.52
2017-10-29T20:35:46.832Z,100509.94
2017-10-29T20:38:50.099Z,100528.17
2017-10-29T20:41:54.800Z,100518.68
2017-10-29T20:44:59.652Z,100522.87
2017-10-29T20:48:03.509Z,100536.20
2017-10-29T20:51:05.942Z,100543.52
2017-10-29T20:54:07.702Z,100540.19
2017-10-29T20:57:09.326Z,100540.50
2017-10-29T21:00:10.862Z,100559.42
2017-10-29T21:03:13.205Z,100559.44
2017-10-29T21:06:14.901Z,100568.88
2017-10-29T21:09:16.469Z,100556.72
2017-10-29T21:12:18.017Z,100568.11
2017-10-29T21:15:19.615Z,100564.80
2017-10-29T21:18:21.197Z,100569.13
2017-10-29T21:21:22.846Z,100571.41
2017-10-29T21:24:24.388Z,100579.27
2017-10-29T21:27:27.146Z,100579.16
2017-10-29T21:30:30.389Z,100579.70
2017-10-29T21:33:32.234Z,100596.24
2017-10-29T21:36:33.895Z,100594.37
2017-10-29T21:39:35.419Z,100599.66
2017-10-29T21:42:37.263Z,100604.69
2017-10-29T21:45:38.840Z,100591.08
2017-10-29T21:48:40.374Z,100587.31
2017-10-29T21:54:51.009Z,100590.91
2017-10-29T21:57:52.537Z,100602.38
2017-10-29T22:00:54.103Z,100602.46
2017-10-29T22:03:55.689Z,100597.10
2017-10-29T22:06:57.207Z,100597.71
2017-10-29T22:09:58.779Z,100590.38
2017-10-29T22:13:00.359Z,100597.63
2017-10-29T22:16:03.447Z,100594.27
2017-10-29T22:19:05.741Z,100599.20
2017-10-29T22:22:07.304Z,100600.56
2017-10-29T22:25:08.846Z,100600.92
2017-10-29T22:28:11.093Z,100593.37
2017-10-29T22:31:13.423Z,100586.42
2017-10-29T22:34:17.050Z,100588.11
2017-10-29T22:37:18.652Z,100590.38
2017-10-29T22:40:21.058Z,100582.59
2017-10-29T22:43:22.599Z,100592.41
2017-10-29T22:46:24.123Z,100588.73
2017-10-29T22:49:26.379Z,100600.91
2017-10-29T22:55:36.197Z,100603.35
2017-10-29T22:58:37.738Z,100609.47
2017-10-29T23:01:39.296Z,100615.12
2017-10-29T23:04:40.815Z,100615.48
2017-10-29T23:08:01.036Z,100586.80
2017-10-29T23:11:02.622Z,100609.02
2017-10-29T23:14:04.167Z,100609.48
2017-10-29T23:17:05.714Z,100612.11
2017-10-29T23:20:07.231Z,100614.77
2017-10-29T23:23:10.276Z,100606.70
2017-10-29T23:26:11.769Z,100619.70
2017-10-29T23:29:14.146Z,100621.04
2017-10-29T23:32:16.396Z,100620.48
2017-10-29T23:35:17.970Z,100616.78
2017-10-29T23:38:19.486Z,100626.42
2017-10-29T23:41:21.004Z,100631.46
2017-10-29T23:44:22.565Z,100630.58
2017-10-29T23:47:24.057Z,100663.72
2017-10-29T23:50:25.620Z,100629.30
2017-10-29T23:53:27.259Z,100633.87
2017-10-29T23:56:28.786Z,100646.11
2017-10-29T23:59:30.335Z,100652.33
